Time;durP1;ratioP1;P1;durP2;ratioP2;P2;SDS_P1;SDS_P2;PMS_P1;PMS_P2;Temp;Humidity;BMP_temperature;BMP_pressure;BME280_temperature;BME280_humidity;BME280_pressure;Samples;Min_cycle;Max_cycle;Signal;HPM_P1;HPM_P2
2021/08/08 00:00:18;;;;;;;3.23;2.80;;;14.30;99.90;;;13.27;91.62;97230.66;5037109;28;20458;-90
2021/08/08 00:02:48;;;;;;;4.83;3.00;;;14.50;99.90;;;13.16;91.73;97223.44;5039873;28;21028;-89
2021/08/08 00:05:20;;;;;;;3.53;3.00;;;14.50;99.90;;;13.03;91.76;97214.59;5052664;28;20449;-89
2021/08/08 00:07:49;;;;;;;2.50;2.30;;;14.50;99.90;;;13.42;91.78;97278.00;5048161;28;20441;-89
2021/08/08 00:15:42;;;;;;;5.00;2.50;;;14.50;99.90;;;13.42;91.92;97291.56;5044620;28;20537;-90
2021/08/08 00:23:39;;;;;;;2.80;2.40;;;14.40;99.90;;;13.45;92.25;97308.19;5043946;28;20472;-90
2021/08/08 00:26:31;;;;;;;4.30;2.63;;;14.40;99.90;;;12.83;91.84;97196.16;5048197;28;20544;-90
2021/08/08 00:31:51;;;;;;;3.43;2.80;;;14.60;99.90;;;13.52;91.50;97296.34;5060223;28;20453;-89
2021/08/08 00:34:26;;;;;;;2.67;2.47;;;14.50;99.90;;;13.66;91.37;97323.94;5069278;28;20512;-91
2021/08/08 01:03:04;;;;;;;2.50;2.30;;;14.50;99.90;;;13.41;91.25;97298.06;5032727;28;20981;-90
2021/08/08 01:05:46;;;;;;;4.63;2.30;;;14.50;99.90;;;13.43;91.24;97301.38;5032406;28;20454;-90
2021/08/08 01:19:22;;;;;;;3.10;2.33;;;14.40;99.90;;;13.32;91.68;97316.69;5024843;28;20450;-90
2021/08/08 01:22:00;;;;;;;3.77;2.43;;;14.40;99.90;;;13.22;91.96;97317.34;5032345;28;20458;-90
2021/08/08 01:24:34;;;;;;;2.53;2.33;;;14.30;99.90;;;12.67;91.89;97246.63;5026919;28;20454;-89
2021/08/08 01:27:16;;;;;;;4.83;2.50;;;14.20;99.90;;;12.21;92.27;97170.03;5037068;28;20857;-90
2021/08/08 01:29:45;;;;;;;5.77;3.10;;;14.20;99.90;;;12.84;92.52;97278.31;5035333;28;20485;-90
2021/08/08 01:32:15;;;;;;;4.83;3.20;;;14.10;99.90;;;12.50;92.47;97232.25;5033865;28;20820;-89
2021/08/08 01:34:47;;;;;;;4.77;2.53;;;14.10;99.90;;;12.97;92.43;97306.97;5027608;28;20444;-90
2021/08/08 01:37:19;;;;;;;4.07;3.07;;;14.10;99.90;;;12.49;92.42;97252.28;5032397;28;20755;-90
2021/08/08 01:39:55;;;;;;;3.37;2.47;;;14.10;99.90;;;12.85;92.72;97301.66;5031765;28;20466;-90
2021/08/08 01:42:31;;;;;;;3.97;2.90;;;14.10;99.90;;;12.70;92.93;97275.13;5031979;28;20507;-89
2021/08/08 01:45:01;;;;;;;3.90;3.13;;;14.00;99.90;;;13.03;93.01;97342.03;5012343;28;20462;-89
2021/08/08 01:47:33;;;;;;;3.63;3.23;;;14.00;99.90;;;12.06;93.11;97201.25;4998690;28;20439;-90
2021/08/08 01:50:09;;;;;;;4.37;3.70;;;13.90;99.90;;;12.33;93.69;97252.88;5029747;28;20479;-90
2021/08/08 01:52:37;;;;;;;3.17;2.87;;;13.90;99.90;;;12.88;93.06;97341.81;5031853;28;20460;-90
2021/08/08 01:55:10;;;;;;;3.33;3.03;;;13.90;99.90;;;12.73;93.32;97313.38;5027061;28;20530;-90
2021/08/08 01:57:44;;;;;;;3.80;3.17;;;13.80;99.90;;;12.27;93.63;97247.63;5019511;28;20458;-89
2021/08/08 02:00:19;;;;;;;3.30;3.00;;;13.80;99.90;;;12.70;93.62;97330.16;5031987;28;20788;-89
2021/08/08 02:02:56;;;;;;;5.10;3.20;;;13.70;99.90;;;12.65;93.72;97330.03;5033475;28;20447;-90
2021/08/08 02:05:30;;;;;;;5.13;3.40;;;13.70;99.90;;;12.65;93.82;97337.38;5036718;28;20450;-89
2021/08/08 02:08:05;;;;;;;4.30;3.27;;;13.60;99.90;;;12.57;93.96;97325.84;5022234;28;20454;-90
2021/08/08 02:10:41;;;;;;;7.00;3.80;;;13.60;99.90;;;12.72;93.87;97357.00;5032424;28;20466;-89
2021/08/08 02:16:02;;;;;;;6.90;3.40;;;13.70;99.90;;;12.07;93.87;97261.63;5032634;28;20451;-90
2021/08/08 02:21:33;;;;;;;3.30;3.10;;;13.70;99.90;;;12.46;93.38;97310.50;5128487;27;20570;-89
2021/08/08 02:24:01;;;;;;;6.43;3.77;;;13.80;99.90;;;11.91;92.87;97223.41;5108452;28;20507;-89
2021/08/08 02:26:30;;;;;;;3.20;2.90;;;13.80;99.90;;;11.97;92.56;97235.16;5091482;28;20498;-89
2021/08/08 02:29:00;;;;;;;3.00;2.73;;;13.80;99.90;;;12.25;92.91;97307.44;5113943;28;20577;-89
2021/08/08 02:31:51;;;;;;;3.87;2.70;;;13.80;99.90;;;12.77;92.84;97361.69;5123817;27;20452;-89
2021/08/08 02:34:22;;;;;;;3.17;2.97;;;13.80;99.90;;;12.98;92.55;97379.94;5120719;27;20462;-89
2021/08/08 02:36:52;;;;;;;6.67;3.50;;;14.00;99.90;;;12.51;92.22;97304.34;5119546;27;20473;-89
2021/08/08 02:42:05;;;;;;;5.50;2.50;;;14.20;99.90;;;13.23;91.25;97392.22;5121024;27;20794;-89
2021/08/08 02:49:56;;;;;;;2.87;2.33;;;14.40;99.90;;;13.51;90.53;97401.34;5125882;27;20449;-90
2021/08/08 02:55:10;;;;;;;3.47;2.40;;;14.50;99.90;;;13.53;90.34;97412.78;5126783;28;20439;-89
2021/08/08 02:57:38;;;;;;;3.23;2.00;;;14.50;99.90;;;13.59;89.84;97398.22;5137124;27;20456;-89
2021/08/08 03:00:09;;;;;;;2.83;1.83;;;14.60;99.90;;;13.33;89.02;97359.00;5144474;27;20530;-89
2021/08/08 03:05:26;;;;;;;5.60;2.10;;;14.60;99.90;;;13.22;88.64;97355.34;5114560;27;20446;-89
2021/08/08 03:07:58;;;;;;;4.07;1.73;;;14.70;99.90;;;12.81;88.81;97270.66;5137959;27;20532;-89
2021/08/08 03:16:01;;;;;;;4.00;2.37;;;14.80;99.90;;;13.73;88.38;97431.25;5119213;28;20439;-89
2021/08/08 03:18:31;;;;;;;2.33;1.63;;;14.80;99.90;;;13.32;88.50;97376.34;5131182;28;20862;-88
2021/08/08 03:21:01;;;;;;;2.97;2.10;;;14.70;99.90;;;13.30;88.46;97395.63;5131318;28;20497;-89
2021/08/08 03:23:35;;;;;;;7.50;1.80;;;14.70;99.90;;;12.72;88.81;97319.88;5127407;27;20450;-89
2021/08/08 03:26:07;;;;;;;2.60;2.00;;;14.70;99.90;;;13.18;89.06;97389.44;5107074;28;20459;-89
2021/08/08 03:28:43;;;;;;;2.43;1.80;;;14.60;99.90;;;13.20;89.21;97389.22;5123686;27;20456;-89
2021/08/08 03:31:13;;;;;;;5.40;2.10;;;14.50;99.90;;;13.45;89.23;97437.66;5107583;28;20471;-89
2021/08/08 03:33:42;;;;;;;3.57;2.10;;;14.40;99.90;;;13.02;89.43;97385.66;5108418;28;20455;-89
2021/08/08 03:36:13;;;;;;;3.37;1.50;;;14.40;99.90;;;13.03;89.80;97403.56;5094891;28;20447;-89
2021/08/08 03:38:52;;;;;;;2.00;1.90;;;14.40;99.90;;;13.36;89.79;97461.63;5110182;28;20447;-89
2021/08/08 03:44:09;;;;;;;1.80;1.70;;;14.30;99.90;;;13.06;89.68;97432.09;5100818;28;20458;-89
2021/08/08 03:46:41;;;;;;;2.67;2.47;;;14.30;99.90;;;13.24;89.77;97463.59;5091019;28;20517;-89
2021/08/08 03:49:09;;;;;;;3.67;2.20;;;14.20;99.90;;;12.86;89.83;97414.44;5104207;28;20444;-89
2021/08/08 03:51:37;;;;;;;2.30;1.83;;;14.20;99.90;;;13.09;90.50;97462.28;5090498;28;20443;-88
2021/08/08 03:54:08;;;;;;;3.13;2.23;;;14.10;99.90;;;12.73;90.11;97410.97;5078432;28;20453;-89
2021/08/08 03:56:39;;;;;;;3.67;1.83;;;14.10;99.90;;;12.51;90.17;97391.88;5095020;28;20448;-88
2021/08/08 03:59:08;;;;;;;6.80;2.67;;;14.00;99.90;;;12.63;90.18;97423.50;5104669;28;20916;-88
2021/08/08 04:01:37;;;;;;;5.57;2.57;;;14.00;99.90;;;12.66;90.23;97434.69;5115222;28;20483;-89
2021/08/08 04:04:10;;;;;;;5.87;2.80;;;14.00;99.90;;;12.68;90.46;97454.25;5103850;28;20448;-89
2021/08/08 04:06:42;;;;;;;2.80;2.37;;;13.90;99.90;;;12.06;90.24;97355.56;5075172;28;20433;-89
2021/08/08 04:09:10;;;;;;;2.20;2.00;;;13.90;99.90;;;12.29;90.72;97389.03;5109621;28;20435;-89
2021/08/08 04:11:39;;;;;;;2.63;2.43;;;13.90;99.90;;;12.01;90.61;97344.59;5094017;28;20480;-89
2021/08/08 04:14:06;;;;;;;2.80;2.47;;;13.90;99.90;;;12.31;90.32;97397.72;5100128;28;20452;-88
2021/08/08 04:16:35;;;;;;;3.23;2.93;;;13.90;99.90;;;13.02;90.30;97494.97;5101668;28;20451;-89
2021/08/08 04:19:03;;;;;;;3.47;2.80;;;14.00;99.90;;;13.18;90.12;97492.53;5100294;28;20453;-88
2021/08/08 04:21:32;;;;;;;2.57;2.37;;;14.30;99.90;;;13.34;89.16;97496.28;5106969;28;20482;-88
2021/08/08 04:24:00;;;;;;;3.10;2.73;;;14.60;99.80;;;13.19;89.16;97472.47;5096765;28;20459;-89
2021/08/08 04:26:30;;;;;;;2.97;2.67;;;14.60;99.30;;;13.28;89.20;97502.72;5081966;28;20543;-89
2021/08/08 04:28:57;;;;;;;2.80;2.37;;;14.40;99.90;;;13.23;89.13;97503.44;5085709;28;20558;-88
2021/08/08 04:40:20;;;;;;;4.43;2.60;;;16.10;90.40;;;14.30;84.86;97513.50;5105592;28;21002;-90
2021/08/08 04:42:51;;;;;;;2.00;1.90;;;15.90;91.00;;;14.53;84.46;97527.09;5124504;27;20438;-90
2021/08/08 04:45:27;;;;;;;2.53;2.20;;;16.20;90.60;;;14.54;83.54;97507.78;5111370;28;20809;-90
2021/08/08 04:48:00;;;;;;;1.83;1.73;;;16.50;88.80;;;15.08;81.70;97521.72;5112107;28;20442;-90
2021/08/08 04:50:30;;;;;;;2.63;2.10;;;17.60;83.60;;;15.55;79.68;97531.97;5103625;28;20476;-90
2021/08/08 04:58:47;;;;;;;3.70;1.50;;;19.00;73.00;;;15.73;78.44;97540.81;5108597;28;20425;-90
2021/08/08 05:01:20;;;;;;;1.90;1.53;;;18.70;72.90;;;15.29;79.66;97531.72;5128024;28;20450;-90
2021/08/08 05:09:14;;;;;;;4.90;2.60;;;18.50;75.60;;;15.91;77.37;97525.16;5107903;28;20491;-90
2021/08/08 05:11:44;;;;;;;2.10;1.90;;;18.50;74.70;;;15.58;78.11;97509.66;5117998;28;20430;-89
2021/08/08 05:14:18;;;;;;;6.37;1.87;;;18.00;76.80;;;15.95;77.34;97562.50;5109199;28;20461;-90
2021/08/08 05:16:47;;;;;;;1.67;1.57;;;18.00;76.50;;;16.31;76.37;97542.00;5108668;28;20483;-90
2021/08/08 05:19:14;;;;;;;4.97;1.30;;;18.60;74.80;;;16.24;76.47;97558.59;5096687;28;20724;-89
2021/08/08 05:21:43;;;;;;;2.40;1.80;;;18.50;74.20;;;15.92;77.32;97565.75;5128158;28;20446;-89
2021/08/08 05:24:11;;;;;;;2.20;2.03;;;17.90;76.30;;;15.68;78.57;97551.63;5112804;28;20431;-89
2021/08/08 05:29:23;;;;;;;2.50;1.70;;;17.40;80.20;;;16.17;76.66;97574.38;5134289;28;20463;-90
2021/08/08 05:31:55;;;;;;;2.63;1.60;;;18.40;75.60;;;16.38;75.87;97562.50;5101612;28;20535;-88
2021/08/08 05:34:25;;;;;;;3.83;1.53;;;18.90;73.90;;;16.59;74.30;97564.50;5100191;28;20578;-88
2021/08/08 05:36:52;;;;;;;1.80;1.70;;;19.40;71.60;;;16.84;74.01;97563.78;5093026;28;20482;-88
2021/08/08 05:39:20;;;;;;;5.77;1.90;;;19.40;71.60;;;17.07;73.15;97558.97;5109041;28;20468;-88
2021/08/08 05:41:48;;;;;;;2.50;1.50;;;19.90;70.50;;;17.95;70.55;97583.63;5109037;28;20809;-89
2021/08/08 05:44:15;;;;;;;1.30;1.20;;;20.70;68.50;;;18.26;68.72;97591.81;5106738;28;20696;-88
2021/08/08 05:46:47;;;;;;;6.23;1.27;;;21.20;66.50;;;18.43;68.12;97569.63;5087800;28;20822;-89
2021/08/08 05:49:17;;;;;;;2.73;1.17;;;21.70;65.20;;;18.27;68.38;97572.41;5081841;28;20467;-88
2021/08/08 05:51:45;;;;;;;1.70;1.17;;;21.60;64.40;;;17.88;68.82;97564.75;5080570;28;20459;-89
2021/08/08 05:54:12;;;;;;;2.83;1.13;;;20.80;65.00;;;17.79;69.47;97572.69;5093339;28;20447;-89
2021/08/08 05:56:39;;;;;;;2.00;1.50;;;20.30;66.30;;;17.63;69.73;97590.19;5095069;28;20539;-89
2021/08/08 05:59:08;;;;;;;2.50;1.40;;;19.80;66.70;;;17.47;70.66;97601.09;5095855;28;20448;-88
2021/08/08 06:01:35;;;;;;;2.13;1.50;;;19.60;67.40;;;17.40;71.29;97579.50;5074460;28;20451;-88
2021/08/08 06:04:02;;;;;;;2.70;1.10;;;19.60;67.70;;;17.43;70.20;97553.56;5078348;28;20959;-89
2021/08/08 06:06:32;;;;;;;1.33;1.10;;;19.80;67.10;;;17.42;70.75;97568.31;5106609;28;20448;-89
2021/08/08 06:09:02;;;;;;;1.43;1.10;;;19.90;66.80;;;17.25;70.36;97558.47;5116783;28;20475;-89
2021/08/08 06:11:29;;;;;;;4.03;1.60;;;19.70;67.00;;;17.11;71.64;97587.38;5099995;28;20436;-89
2021/08/08 06:13:59;;;;;;;2.23;2.03;;;19.10;68.20;;;16.96;72.96;97586.19;5097496;28;20483;-89
2021/08/08 06:16:28;;;;;;;3.20;1.50;;;18.60;70.00;;;16.76;73.35;97567.84;5097170;28;20498;-89
2021/08/08 06:19:00;;;;;;;1.93;1.40;;;18.30;71.40;;;16.59;73.91;97592.56;5088641;28;20439;-89
2021/08/08 06:21:29;;;;;;;2.43;1.60;;;18.00;72.50;;;16.52;74.50;97592.00;5113897;28;20464;-89
2021/08/08 06:23:59;;;;;;;3.47;1.60;;;17.70;73.90;;;16.30;74.60;97584.78;5108893;28;20458;-88
2021/08/08 06:26:27;;;;;;;3.00;1.03;;;17.60;74.70;;;15.85;74.63;97544.16;5083497;28;20958;-89
2021/08/08 06:28:55;;;;;;;2.43;1.50;;;17.40;75.40;;;16.05;75.01;97560.91;5063966;28;20447;-89
2021/08/08 06:31:23;;;;;;;3.57;1.50;;;17.40;76.70;;;16.20;74.85;97590.19;5087529;28;21012;-89
2021/08/08 06:33:53;;;;;;;5.73;1.50;;;17.40;77.10;;;16.42;75.78;97603.69;5077326;28;20452;-88
2021/08/08 06:36:23;;;;;;;6.27;2.33;;;17.40;78.00;;;16.29;74.74;97581.25;5074982;28;20555;-89
2021/08/08 06:38:52;;;;;;;1.60;1.20;;;17.50;77.60;;;16.41;74.37;97589.22;5084318;28;20758;-89
2021/08/08 06:41:19;;;;;;;2.70;1.53;;;17.60;77.50;;;16.19;75.44;97591.28;5082414;28;20464;-89
2021/08/08 06:43:49;;;;;;;3.13;1.60;;;17.40;77.70;;;16.32;75.05;97588.09;5066727;28;20981;-89
2021/08/08 06:46:16;;;;;;;2.20;1.50;;;17.50;78.10;;;16.75;74.60;97598.09;5072033;28;20459;-89
2021/08/08 06:48:43;;;;;;;2.73;1.53;;;17.80;78.70;;;16.74;74.43;97602.75;5094320;28;20432;-89
2021/08/08 06:51:13;;;;;;;3.77;1.73;;;17.80;77.50;;;16.98;73.42;97605.84;5067703;28;20538;-88
2021/08/08 06:53:43;;;;;;;1.40;1.10;;;18.10;77.20;;;16.93;71.94;97554.00;5095090;28;20448;-88
2021/08/08 06:56:10;;;;;;;2.60;1.20;;;18.30;76.10;;;16.89;71.91;97533.78;5084549;28;20554;-89
2021/08/08 06:58:37;;;;;;;1.63;1.53;;;18.60;75.60;;;17.39;71.01;97615.28;5092121;28;20910;-89
2021/08/08 07:01:05;;;;;;;1.90;1.70;;;18.60;73.80;;;17.39;70.91;97587.97;5081125;28;20519;-89
2021/08/08 07:03:33;;;;;;;1.23;1.13;;;18.70;73.60;;;17.50;70.52;97581.41;5083578;28;20445;-89
2021/08/08 07:06:00;;;;;;;2.33;1.50;;;18.80;73.40;;;18.03;69.88;97615.06;5076040;28;20479;-88
2021/08/08 07:08:31;;;;;;;1.10;1.00;;;19.00;73.00;;;17.80;69.63;97607.13;5096685;28;20441;-88
2021/08/08 07:10:58;;;;;;;2.30;1.20;;;19.10;71.90;;;17.74;69.10;97621.88;5093411;28;20449;-89
2021/08/08 07:13:26;;;;;;;6.10;1.40;;;19.00;71.10;;;17.97;68.62;97622.44;5073458;28;20508;-89
2021/08/08 07:16:01;;;;;;;1.80;1.50;;;19.20;71.10;;;17.87;67.89;97603.31;5064682;28;20539;-88
2021/08/08 07:18:28;;;;;;;1.77;1.53;;;19.20;70.30;;;17.70;68.38;97631.72;5081714;28;20459;-89
2021/08/08 07:20:56;;;;;;;5.13;1.40;;;19.10;69.90;;;18.15;67.29;97650.34;5088254;28;20504;-88
2021/08/08 07:23:24;;;;;;;4.10;1.53;;;19.20;70.10;;;18.09;67.25;97644.88;5062322;28;20620;-89
2021/08/08 07:25:56;;;;;;;2.00;1.37;;;19.10;69.50;;;17.55;67.85;97548.69;5066590;28;20466;-89
2021/08/08 07:28:23;;;;;;;1.97;1.33;;;19.20;69.70;;;18.62;66.50;97630.03;5079986;28;20503;-88
2021/08/08 07:30:53;;;;;;;2.10;1.23;;;19.60;69.60;;;18.31;65.92;97643.78;5073340;28;20506;-88
2021/08/08 07:33:22;;;;;;;1.40;0.90;;;19.60;67.90;;;18.85;64.52;97635.16;5082166;28;20436;-88
2021/08/08 07:35:51;;;;;;;1.50;1.30;;;19.80;68.00;;;19.18;63.85;97633.69;5097440;28;20464;-88
2021/08/08 07:38:19;;;;;;;5.57;1.60;;;20.20;67.60;;;19.21;64.00;97630.41;5112443;28;20446;-88
2021/08/08 07:40:46;;;;;;;2.20;1.10;;;20.30;67.30;;;19.27;62.93;97627.63;5097397;28;20507;-88
2021/08/08 07:43:15;;;;;;;2.10;1.30;;;20.40;66.10;;;19.39;62.50;97636.31;5095323;28;20440;-88
2021/08/08 07:45:43;;;;;;;1.43;1.03;;;20.50;65.50;;;19.05;62.54;97640.59;5088805;28;20463;-88
2021/08/08 07:48:11;;;;;;;2.13;1.40;;;20.30;65.00;;;18.95;63.64;97633.22;5095572;28;20527;-87
2021/08/08 07:50:40;;;;;;;1.90;1.20;;;20.00;65.90;;;19.15;62.52;97626.03;5094801;28;20509;-87
2021/08/08 07:53:07;;;;;;;1.53;1.20;;;20.30;65.70;;;19.03;63.46;97634.59;5080558;28;20452;-88
2021/08/08 07:55:37;;;;;;;2.30;1.00;;;20.10;65.60;;;18.79;62.00;97590.59;5092385;28;20543;-89
2021/08/08 07:58:04;;;;;;;2.53;1.40;;;20.20;65.00;;;19.02;63.30;97635.69;5075748;28;20463;-89
2021/08/08 08:00:41;;;;;;;1.50;1.40;;;20.20;65.60;;;19.14;62.60;97649.03;5075245;28;20535;-86
2021/08/08 08:03:08;;;;;;;3.20;1.50;;;20.30;65.10;;;19.39;61.41;97647.28;5092043;28;20447;-87
2021/08/08 08:05:36;;;;;;;2.60;1.53;;;20.40;64.60;;;19.20;62.00;97653.41;5085552;28;20459;-87
2021/08/08 08:08:07;;;;;;;4.87;1.20;;;20.40;64.10;;;18.98;61.99;97665.50;5092367;28;20554;-88
2021/08/08 08:10:40;;;;;;;1.50;1.20;;;20.20;64.00;;;18.72;60.63;97601.00;5093264;28;20452;-87
2021/08/08 08:13:08;;;;;;;2.27;1.40;;;20.20;63.40;;;19.00;61.41;97658.94;5094836;28;20456;-88
2021/08/08 08:15:39;;;;;;;2.20;1.23;;;20.10;63.70;;;19.06;60.45;97660.59;5093105;28;20443;-87
2021/08/08 08:18:07;;;;;;;3.23;1.30;;;20.20;63.00;;;19.10;59.57;97634.28;5092280;28;20460;-88
2021/08/08 08:20:37;;;;;;;1.30;1.10;;;20.30;62.80;;;19.79;56.89;97661.84;5060660;28;20449;-88
2021/08/08 08:23:08;;;;;;;3.53;1.20;;;20.70;61.70;;;19.82;57.15;97660.44;5083149;28;20440;-88
2021/08/08 08:25:37;;;;;;;4.30;1.37;;;20.80;61.60;;;19.45;56.50;97661.78;5091588;28;20535;-89
2021/08/08 08:28:06;;;;;;;2.93;1.20;;;20.60;60.20;;;19.62;56.59;97623.03;5066331;28;20448;-89
2021/08/08 08:30:33;;;;;;;2.43;1.33;;;20.70;60.90;;;19.35;58.22;97618.81;5103134;28;20471;-88
2021/08/08 08:33:04;;;;;;;1.60;1.00;;;20.60;61.40;;;19.73;58.21;97635.56;5102651;28;20486;-88
2021/08/08 08:35:32;;;;;;;2.37;1.20;;;20.80;61.70;;;19.53;56.74;97653.78;5070618;28;20527;-88
2021/08/08 08:38:00;;;;;;;1.40;1.30;;;20.70;60.20;;;19.57;56.71;97658.69;5101400;28;21045;-88
2021/08/08 08:40:30;;;;;;;4.83;1.43;;;20.60;59.90;;;19.53;56.08;97645.56;5079150;28;20509;-88
2021/08/08 08:43:00;;;;;;;1.80;1.10;;;20.50;59.50;;;19.45;55.56;97613.28;5096417;28;20442;-88
2021/08/08 08:45:29;;;;;;;2.57;0.90;;;20.70;59.40;;;19.46;54.60;97650.50;5086146;28;20443;-88
2021/08/08 08:48:00;;;;;;;1.20;1.07;;;20.60;58.50;;;19.52;54.83;97634.88;5093974;28;20539;-88
2021/08/08 08:50:29;;;;;;;1.33;1.10;;;20.60;58.80;;;19.70;54.56;97649.00;5094063;28;20487;-88
2021/08/08 08:52:57;;;;;;;2.23;1.23;;;20.60;58.70;;;19.63;54.53;97630.97;5087257;28;21010;-88
2021/08/08 08:55:25;;;;;;;3.03;1.27;;;20.70;58.60;;;20.03;53.66;97639.19;5093981;28;20444;-88
2021/08/08 08:57:54;;;;;;;3.17;1.20;;;21.00;58.70;;;19.68;54.25;97621.91;5094801;28;20838;-88
2021/08/08 09:00:23;;;;;;;3.10;2.00;;;20.90;58.20;;;19.36;55.13;97665.09;5070611;28;20456;-88
2021/08/08 09:02:53;;;;;;;3.60;1.33;;;20.60;58.10;;;19.16;55.98;97621.38;5092597;28;20528;-88
2021/08/08 09:05:21;;;;;;;2.47;1.13;;;20.50;58.70;;;19.06;56.70;97672.34;5091013;28;20949;-88
2021/08/08 09:07:51;;;;;;;3.57;1.63;;;20.20;58.80;;;18.90;56.22;97668.81;5088049;28;20539;-88
2021/08/08 09:10:20;;;;;;;1.93;1.50;;;19.90;58.60;;;18.68;56.66;97650.81;5063483;28;20548;-88
2021/08/08 09:12:58;;;;;;;2.47;1.60;;;19.80;58.80;;;18.56;56.53;97614.72;5089143;28;20502;-88
2021/08/08 09:15:37;;;;;;;2.10;1.30;;;19.70;58.80;;;19.03;56.16;97658.38;5079746;28;20458;-88
2021/08/08 09:18:16;;;;;;;2.03;1.27;;;19.90;58.60;;;19.45;55.29;97654.34;5069626;28;20475;-88
2021/08/08 09:20:44;;;;;;;2.50;1.30;;;20.30;58.90;;;19.87;55.09;97662.31;5082108;28;20575;-87
2021/08/08 09:23:15;;;;;;;2.13;1.47;;;20.60;59.40;;;20.36;53.87;97647.69;5078442;28;20463;-88
2021/08/08 09:25:52;;;;;;;1.63;1.43;;;21.10;58.90;;;20.10;54.51;97639.69;5089634;28;20455;-88
2021/08/08 09:28:21;;;;;;;2.40;1.10;;;21.30;58.70;;;20.24;53.88;97649.97;5086688;28;20531;-87
2021/08/08 09:30:51;;;;;;;1.43;1.27;;;21.30;58.50;;;20.19;51.90;97637.16;5073677;28;20468;-89
2021/08/08 09:33:19;;;;;;;1.13;0.80;;;21.30;57.10;;;20.36;52.11;97663.34;5094488;28;20533;-89
2021/08/08 09:35:46;;;;;;;2.20;1.20;;;21.40;57.20;;;20.08;53.38;97661.09;5093755;28;20547;-89
2021/08/08 09:38:14;;;;;;;1.93;1.10;;;21.20;57.40;;;19.45;54.47;97616.00;5074502;28;20898;-88
2021/08/08 09:40:43;;;;;;;1.40;1.20;;;21.00;57.70;;;19.37;55.59;97674.13;5063842;28;20946;-88
2021/08/08 09:43:13;;;;;;;1.80;1.00;;;20.50;57.80;;;19.42;55.84;97641.22;5091762;28;20444;-88
2021/08/08 09:45:44;;;;;;;2.80;1.40;;;20.60;58.40;;;19.65;55.59;97666.31;5099000;28;20505;-87
2021/08/08 09:48:13;;;;;;;1.87;1.73;;;20.70;58.50;;;20.00;55.89;97678.16;5083408;28;20843;-87
2021/08/08 09:50:43;;;;;;;1.83;1.27;;;20.90;59.10;;;20.03;55.73;97683.06;5096036;28;20981;-87
2021/08/08 09:53:19;;;;;;;2.50;1.20;;;21.00;58.90;;;19.81;55.54;97658.78;5075873;28;20440;-87
2021/08/08 09:55:46;;;;;;;2.57;1.07;;;20.90;58.50;;;20.21;54.29;97678.81;5094884;28;20550;-88
2021/08/08 09:58:29;;;;;;;2.87;1.63;;;21.00;58.30;;;20.30;53.31;97679.03;5094328;28;20542;-88
2021/08/08 10:01:00;;;;;;;1.67;1.33;;;21.20;57.90;;;20.32;53.90;97678.72;5063919;28;20452;-87
2021/08/08 10:03:28;;;;;;;2.87;1.47;;;21.30;58.00;;;20.39;53.28;97671.78;5074448;28;20452;-88
2021/08/08 10:05:57;;;;;;;2.67;1.47;;;21.40;57.60;;;20.47;51.73;97664.88;5089257;28;20474;-88
2021/08/08 10:08:26;;;;;;;1.43;1.33;;;21.40;56.80;;;20.67;51.48;97680.31;5094147;28;20451;-87
2021/08/08 10:10:57;;;;;;;1.33;1.00;;;21.60;56.80;;;20.77;48.43;97664.84;5094905;28;20714;-88
2021/08/08 10:13:40;;;;;;;1.47;1.23;;;21.70;54.80;;;20.86;48.71;97665.88;5086805;28;20447;-88
2021/08/08 10:16:14;;;;;;;2.43;1.13;;;21.80;55.10;;;21.00;48.33;97643.19;5093982;28;20585;-87
2021/08/08 10:18:46;;;;;;;1.33;1.23;;;21.90;55.10;;;20.95;47.14;97660.56;5093242;28;20552;-88
2021/08/08 10:21:15;;;;;;;5.87;1.17;;;21.90;53.70;;;20.63;46.84;97651.81;5093931;28;20448;-88
2021/08/08 10:23:49;;;;;;;2.57;1.37;;;21.70;53.10;;;20.55;47.51;97649.72;5093392;28;20530;-88
2021/08/08 10:26:17;;;;;;;1.77;1.10;;;21.60;53.80;;;20.89;47.94;97668.03;5072879;28;20539;-88
2021/08/08 10:28:47;;;;;;;1.17;0.90;;;21.70;54.30;;;20.99;48.11;97669.03;5081635;28;20447;-88
2021/08/08 10:31:17;;;;;;;2.60;1.73;;;21.80;54.40;;;20.66;48.02;97653.97;5075325;28;20468;-88
2021/08/08 10:33:46;;;;;;;1.83;1.43;;;21.80;54.20;;;21.23;47.98;97669.03;5076711;28;20454;-88
2021/08/08 10:36:19;;;;;;;1.80;0.97;;;22.10;54.70;;;21.01;47.71;97658.59;5090903;28;20471;-88
2021/08/08 10:38:48;;;;;;;1.77;1.10;;;22.10;54.00;;;21.35;47.21;97676.84;5071688;28;20548;-88
2021/08/08 10:41:17;;;;;;;2.40;1.30;;;22.30;53.80;;;21.44;46.66;97655.00;5084979;28;20962;-88
2021/08/08 10:43:46;;;;;;;1.70;1.60;;;22.50;53.80;;;21.69;46.41;97670.34;5085441;28;20444;-87
2021/08/08 10:46:16;;;;;;;1.20;1.10;;;22.60;53.80;;;21.97;45.83;97662.25;5083992;28;20443;-88
2021/08/08 10:48:45;;;;;;;2.00;1.00;;;22.90;53.50;;;22.03;44.30;97657.47;5074864;28;20448;-87
2021/08/08 10:51:33;;;;;;;1.20;1.10;;;23.00;52.40;;;22.05;45.12;97649.75;5075310;28;20459;-88
2021/08/08 10:54:04;;;;;;;1.83;1.17;;;23.10;53.20;;;22.67;45.39;97642.34;5093124;28;20455;-88
2021/08/08 10:56:47;;;;;;;1.73;1.27;;;23.60;53.80;;;23.16;44.90;97657.38;5093403;28;20451;-88
2021/08/08 10:59:20;;;;;;;1.80;1.37;;;24.10;53.90;;;22.77;44.27;97664.19;5094558;28;20495;-88
2021/08/08 11:01:48;;;;;;;1.40;1.30;;;23.90;52.70;;;22.62;43.79;97602.00;5108646;28;20455;-89
2021/08/08 11:04:16;;;;;;;1.80;0.90;;;24.00;52.80;;;22.24;41.63;97596.59;5089814;28;20443;-88
2021/08/08 11:06:49;;;;;;;3.20;0.97;;;23.60;50.90;;;22.96;41.32;97653.09;5092947;28;20491;-88
2021/08/08 11:09:19;;;;;;;2.80;1.37;;;23.90;51.00;;;23.48;40.23;97633.56;5088108;28;20451;-88
2021/08/08 11:11:58;;;;;;;2.27;1.03;;;24.20;51.20;;;22.91;40.71;97587.91;5091438;28;20504;-88
2021/08/08 11:14:26;;;;;;;2.40;1.23;;;24.30;50.60;;;23.23;42.05;97631.34;5095436;28;20478;-88
2021/08/08 11:17:03;;;;;;;2.17;1.00;;;24.30;51.50;;;23.75;41.34;97653.94;5078743;28;20538;-88
2021/08/08 11:19:37;;;;;;;2.00;1.17;;;24.40;51.50;;;24.51;40.70;97636.94;5092957;28;20446;-88
2021/08/08 11:22:10;;;;;;;1.80;1.13;;;25.10;51.60;;;24.61;39.74;97628.38;5084703;28;20674;-89
2021/08/08 11:25:20;;;;;;;2.27;1.07;;;25.60;51.00;;;23.46;40.98;97514.56;5094317;28;20483;-90
2021/08/08 11:27:56;;;;;;;1.10;1.00;;;25.60;51.20;;;23.92;40.67;97644.16;5068624;28;20444;-90
2021/08/08 11:30:25;;;;;;;1.53;1.20;;;25.00;51.00;;;23.90;40.34;97611.38;5090331;28;20471;-89
2021/08/08 11:32:56;;;;;;;1.10;1.00;;;25.20;50.80;;;24.31;40.52;97636.34;5069350;28;20445;-89
2021/08/08 11:35:27;;;;;;;1.90;1.53;;;25.20;50.90;;;24.02;40.95;97641.16;5068991;28;20565;-88
2021/08/08 11:37:54;;;;;;;2.40;1.20;;;25.20;50.60;;;24.26;41.23;97628.19;5077187;28;20838;-88
2021/08/08 11:40:27;;;;;;;1.90;1.17;;;25.30;51.00;;;23.99;41.32;97652.81;5090814;28;20824;-88
2021/08/08 11:42:57;;;;;;;2.33;1.00;;;25.00;51.00;;;24.19;40.59;97634.16;5070850;28;20444;-88
2021/08/08 11:45:36;;;;;;;1.47;1.10;;;25.10;50.80;;;23.58;40.18;97568.28;5058893;28;20451;-87
2021/08/08 11:48:12;;;;;;;1.03;0.70;;;25.20;50.30;;;24.29;39.27;97625.59;5092995;28;20448;-88
2021/08/08 11:50:52;;;;;;;;;;;;;;;;;;;;;
2021/08/08 11:53:22;;;;;;;2.80;1.13;;;25.40;50.30;;;24.10;39.82;97594.66;5084245;28;20458;-88
2021/08/08 11:55:51;;;;;;;2.50;1.20;;;25.60;50.30;;;24.10;39.77;97645.13;5080509;28;20999;-88
2021/08/08 11:58:18;;;;;;;1.50;1.27;;;25.40;49.40;;;24.10;40.38;97636.03;5077145;28;20556;-88
2021/08/08 12:00:45;;;;;;;2.03;1.23;;;25.10;50.30;;;23.70;41.47;97629.22;5102439;28;20490;-88
2021/08/08 12:03:13;;;;;;;1.40;1.27;;;24.80;50.30;;;24.12;40.46;97661.38;5095525;28;20838;-88
2021/08/08 12:05:45;;;;;;;1.00;1.00;;;25.10;50.20;;;23.60;41.53;97654.28;5099269;28;20475;-88
2021/08/08 12:08:14;;;;;;;2.20;1.20;;;24.60;50.30;;;23.62;40.48;97639.03;5095015;28;20432;-88
2021/08/08 12:10:43;;;;;;;1.00;1.00;;;24.80;50.10;;;22.74;41.99;97554.69;5091328;28;20452;-88
2021/08/08 12:13:34;;;;;;;1.90;0.77;;;24.50;50.40;;;22.62;42.06;97652.34;5090692;28;20460;-88
2021/08/08 12:16:13;;;;;;;2.33;1.53;;;23.70;49.90;;;22.77;42.78;97672.47;5080688;28;20449;-88